createdAt,value
2018-09-22T00:02:04.432Z,16.88
2018-09-22T00:04:30.756Z,16.93
2018-09-22T00:06:57.108Z,16.94
2018-09-22T00:09:23.425Z,16.93
2018-09-22T00:11:49.784Z,16.93
2018-09-22T00:14:16.127Z,16.92
2018-09-22T00:16:42.477Z,17.06
2018-09-22T00:19:08.821Z,16.96
2018-09-22T00:21:35.150Z,16.82
2018-09-22T00:24:01.498Z,16.71
2018-09-22T00:26:27.864Z,16.71
2018-09-22T00:28:54.255Z,16.83
2018-09-22T00:31:20.574Z,16.98
2018-09-22T00:33:46.921Z,17.09
2018-09-22T00:36:13.250Z,17.13
2018-09-22T00:38:39.616Z,17.25
2018-09-22T00:41:05.983Z,17.30
2018-09-22T00:43:32.306Z,17.37
2018-09-22T00:45:58.621Z,17.41
2018-09-22T00:48:24.944Z,17.33
2018-09-22T00:50:51.282Z,17.23
2018-09-22T00:53:17.632Z,17.21
2018-09-22T00:55:44.012Z,17.25
2018-09-22T00:58:10.339Z,17.26
2018-09-22T01:00:36.737Z,17.17
2018-09-22T01:03:03.085Z,17.01
2018-09-22T01:05:29.437Z,16.87
2018-09-22T01:07:55.820Z,16.85
2018-09-22T01:10:22.137Z,16.88
2018-09-22T01:12:48.481Z,16.88
2018-09-22T01:15:14.828Z,16.92
2018-09-22T01:17:41.154Z,16.96
2018-09-22T01:20:07.477Z,16.93
2018-09-22T01:22:33.859Z,16.79
2018-09-22T01:25:00.238Z,16.68
2018-09-22T01:27:26.571Z,16.45
2018-09-22T01:29:52.952Z,16.36
2018-09-22T01:32:19.270Z,16.13
2018-09-22T01:34:45.606Z,15.95
2018-09-22T01:37:11.931Z,15.89
2018-09-22T01:39:38.285Z,15.81
2018-09-22T01:42:04.607Z,15.74
2018-09-22T01:44:30.923Z,15.80
2018-09-22T01:46:57.300Z,15.83
2018-09-22T01:49:23.608Z,16.07
2018-09-22T01:51:49.963Z,16.14
2018-09-22T01:54:16.287Z,16.31
2018-09-22T01:56:42.602Z,16.34
2018-09-22T01:59:08.977Z,16.40
2018-09-22T02:01:35.321Z,16.38
2018-09-22T02:04:01.719Z,16.09
2018-09-22T02:06:28.058Z,15.66
2018-09-22T02:08:54.414Z,15.56
2018-09-22T02:11:20.727Z,15.59
2018-09-22T02:13:47.044Z,15.51
2018-09-22T02:16:13.370Z,15.37
2018-09-22T02:18:39.716Z,15.19
2018-09-22T02:21:06.039Z,15.11
2018-09-22T02:23:32.370Z,15.04
2018-09-22T02:25:58.705Z,15.05
2018-09-22T02:28:25.032Z,15.23
2018-09-22T02:30:51.346Z,15.51
2018-09-22T02:33:17.696Z,15.58
2018-09-22T02:35:44.074Z,15.68
2018-09-22T02:38:10.454Z,15.67
2018-09-22T02:40:36.772Z,15.74
2018-09-22T02:43:03.141Z,15.82
2018-09-22T02:45:29.632Z,15.87
2018-09-22T02:47:55.954Z,15.76
2018-09-22T02:50:22.313Z,15.65
2018-09-22T02:52:48.668Z,15.46
2018-09-22T02:55:14.991Z,15.41
2018-09-22T02:57:41.335Z,15.52
2018-09-22T03:00:07.699Z,15.52
2018-09-22T03:02:34.016Z,15.35
2018-09-22T03:05:00.347Z,15.33
2018-09-22T03:07:26.703Z,15.26
2018-09-22T03:09:53.048Z,15.25
2018-09-22T03:12:19.409Z,15.18
2018-09-22T03:14:45.726Z,15.07
2018-09-22T03:17:12.085Z,14.86
2018-09-22T03:19:38.407Z,14.96
2018-09-22T03:22:04.765Z,15.20
2018-09-22T03:24:31.124Z,15.23
2018-09-22T03:26:57.507Z,14.97
2018-09-22T03:29:23.849Z,14.74
2018-09-22T03:31:50.167Z,14.67
2018-09-22T03:34:16.532Z,14.83
2018-09-22T03:36:42.871Z,14.94
2018-09-22T03:39:09.237Z,14.91
2018-09-22T03:41:35.557Z,14.66
2018-09-22T03:44:01.941Z,14.67
2018-09-22T03:46:28.269Z,14.72
2018-09-22T03:48:54.604Z,14.59
2018-09-22T03:51:20.927Z,14.39
2018-09-22T03:53:47.287Z,14.48
2018-09-22T03:56:13.682Z,14.57
2018-09-22T03:58:40.003Z,14.48
2018-09-22T04:01:06.343Z,14.32
2018-09-22T04:03:32.689Z,14.38
2018-09-22T04:05:59.003Z,14.49
2018-09-22T04:08:25.368Z,14.60
2018-09-22T04:10:51.684Z,14.68
2018-09-22T04:13:18.008Z,14.74
2018-09-22T04:15:44.343Z,14.70
2018-09-22T04:18:10.667Z,14.76
2018-09-22T04:20:37.009Z,14.68
2018-09-22T04:23:03.327Z,14.43
2018-09-22T04:25:29.646Z,14.31
2018-09-22T04:27:55.995Z,14.31
2018-09-22T04:30:22.378Z,14.42
2018-09-22T04:32:48.723Z,14.69
2018-09-22T04:35:15.071Z,14.92
2018-09-22T04:37:41.385Z,15.34
2018-09-22T04:40:07.715Z,15.58
2018-09-22T04:42:34.043Z,15.47
2018-09-22T04:45:00.397Z,15.49
2018-09-22T04:47:26.744Z,15.58
2018-09-22T04:49:53.071Z,15.79
2018-09-22T04:52:19.391Z,15.80
2018-09-22T04:54:45.732Z,15.68
2018-09-22T04:57:12.049Z,15.54
2018-09-22T04:59:38.361Z,15.36
2018-09-22T05:02:04.703Z,15.17
2018-09-22T05:04:31.078Z,15.08
2018-09-22T05:06:57.420Z,15.07
2018-09-22T05:09:23.725Z,15.36
2018-09-22T05:11:50.113Z,15.53
2018-09-22T05:14:16.467Z,15.67
2018-09-22T05:16:42.837Z,15.72
2018-09-22T05:19:09.187Z,16.02
2018-09-22T05:21:35.531Z,16.44
2018-09-22T05:24:01.906Z,16.89
2018-09-22T05:26:28.245Z,16.89
2018-09-22T05:28:54.631Z,16.55
2018-09-22T05:31:20.986Z,16.46
2018-09-22T05:33:47.338Z,16.62
2018-09-22T05:36:13.650Z,16.76
2018-09-22T05:38:39.969Z,16.73
2018-09-22T05:41:06.308Z,16.39
2018-09-22T05:43:32.631Z,16.56
2018-09-22T05:45:58.995Z,16.54
2018-09-22T05:48:25.378Z,16.81
2018-09-22T05:50:51.717Z,17.37
2018-09-22T05:53:18.068Z,17.85
2018-09-22T05:55:44.419Z,18.39
2018-09-22T05:58:10.790Z,18.54
2018-09-22T06:00:37.168Z,18.72
2018-09-22T06:03:03.502Z,18.90
2018-09-22T06:05:29.867Z,19.30
2018-09-22T06:07:56.229Z,19.65
2018-09-22T06:10:22.585Z,19.97
2018-09-22T06:12:48.907Z,20.12
2018-09-22T06:15:15.294Z,20.00
2018-09-22T06:17:41.616Z,19.88
2018-09-22T06:20:07.972Z,19.54
2018-09-22T06:22:34.295Z,19.72
2018-09-22T06:25:00.640Z,20.16
2018-09-22T06:27:26.993Z,20.14
2018-09-22T06:29:53.338Z,20.26
2018-09-22T06:32:19.684Z,20.34
2018-09-22T06:34:46.014Z,20.78
2018-09-22T06:37:12.331Z,20.68
2018-09-22T06:39:38.685Z,20.80
2018-09-22T06:42:05.008Z,21.13
2018-09-22T06:44:31.324Z,21.36
2018-09-22T06:46:57.675Z,21.59
2018-09-22T06:49:24.004Z,21.63
2018-09-22T06:51:50.348Z,21.79
2018-09-22T06:54:16.792Z,21.63
2018-09-22T06:56:43.064Z,21.38
2018-09-22T06:59:09.388Z,21.56
2018-09-22T07:01:35.724Z,21.83
2018-09-22T07:04:02.063Z,21.60
2018-09-22T07:06:28.449Z,21.76
2018-09-22T07:08:54.934Z,22.00
2018-09-22T07:11:21.187Z,22.22
2018-09-22T07:13:47.552Z,22.31
2018-09-22T07:16:13.864Z,22.44
2018-09-22T07:18:40.251Z,22.35
2018-09-22T07:21:06.560Z,22.36
2018-09-22T07:23:32.952Z,22.60
2018-09-22T07:25:59.294Z,22.40
2018-09-22T07:28:25.676Z,22.60
2018-09-22T07:30:52.061Z,23.27
2018-09-22T07:33:18.327Z,23.50
2018-09-22T07:35:44.721Z,23.62
2018-09-22T07:38:11.056Z,23.30
2018-09-22T07:40:37.421Z,23.06
2018-09-22T07:43:03.808Z,23.19
2018-09-22T07:45:30.140Z,23.54
2018-09-22T07:47:56.552Z,24.01
2018-09-22T07:50:22.904Z,24.23
2018-09-22T07:52:49.227Z,24.27
2018-09-22T07:55:15.614Z,24.34
2018-09-22T07:57:42.047Z,24.91
2018-09-22T08:00:08.404Z,25.12
2018-09-22T08:02:34.723Z,25.19
2018-09-22T08:05:01.047Z,25.33
2018-09-22T08:07:27.383Z,25.22
2018-09-22T08:09:53.777Z,25.21
2018-09-22T08:12:20.164Z,25.14
2018-09-22T08:14:46.538Z,25.17
2018-09-22T08:17:12.898Z,25.06
2018-09-22T08:19:39.246Z,25.64
2018-09-22T08:22:05.572Z,25.96
2018-09-22T08:24:31.908Z,25.83
2018-09-22T08:26:58.221Z,25.76
2018-09-22T08:29:24.544Z,25.80
2018-09-22T08:31:50.867Z,25.75
2018-09-22T08:34:17.203Z,25.98
2018-09-22T08:36:43.683Z,26.22
2018-09-22T08:39:09.943Z,26.60
2018-09-22T08:41:36.286Z,26.63
2018-09-22T08:44:02.651Z,26.60
2018-09-22T08:46:28.986Z,26.54
2018-09-22T08:48:55.363Z,26.66
2018-09-22T08:51:21.709Z,26.51
2018-09-22T08:53:48.027Z,26.65
2018-09-22T08:56:14.408Z,26.93
2018-09-22T08:58:40.736Z,26.76
2018-09-22T09:01:07.047Z,26.78
2018-09-22T09:03:33.400Z,26.81
2018-09-22T09:05:59.789Z,26.78
2018-09-22T09:08:26.104Z,27.01
2018-09-22T09:10:52.456Z,27.32
2018-09-22T09:13:18.827Z,27.60
2018-09-22T09:15:45.159Z,27.86
2018-09-22T09:18:11.469Z,27.84
2018-09-22T09:20:37.789Z,28.02
2018-09-22T09:23:04.135Z,28.20
2018-09-22T09:25:30.459Z,28.44
2018-09-22T09:27:56.776Z,28.07
2018-09-22T09:30:23.123Z,27.87
2018-09-22T09:32:49.482Z,27.74
2018-09-22T09:35:15.870Z,28.21
2018-09-22T09:37:42.214Z,28.63
2018-09-22T09:40:08.530Z,28.90
2018-09-22T09:42:34.845Z,29.42
2018-09-22T09:45:01.174Z,29.58
2018-09-22T09:47:27.516Z,29.42
2018-09-22T09:49:53.858Z,29.43
2018-09-22T09:52:20.200Z,29.90
2018-09-22T09:54:46.532Z,29.72
2018-09-22T09:57:12.868Z,29.81
2018-09-22T09:59:39.219Z,29.91
2018-09-22T10:02:05.536Z,30.05
2018-09-22T10:04:31.928Z,29.62
2018-09-22T10:06:58.193Z,29.81
2018-09-22T10:09:24.564Z,29.94
2018-09-22T10:11:50.981Z,29.93
2018-09-22T10:14:17.341Z,29.59
2018-09-22T10:16:43.627Z,29.95
2018-09-22T10:19:10.021Z,30.85
2018-09-22T10:21:36.327Z,31.14
2018-09-22T10:24:02.663Z,31.18
2018-09-22T10:26:29.045Z,31.26
2018-09-22T10:28:55.428Z,31.43
2018-09-22T10:31:21.765Z,31.67
2018-09-22T10:33:48.121Z,31.58
2018-09-22T10:36:14.508Z,31.75
2018-09-22T10:38:40.859Z,32.25
2018-09-22T10:41:07.240Z,31.98
2018-09-22T10:43:33.596Z,32.23
2018-09-22T10:45:59.964Z,31.89
2018-09-22T10:48:26.313Z,31.94
2018-09-22T10:50:52.698Z,31.93
2018-09-22T10:53:19.053Z,31.80
2018-09-22T10:55:45.450Z,31.92
2018-09-22T10:58:11.836Z,31.85
2018-09-22T11:00:38.244Z,31.31
2018-09-22T11:03:04.593Z,31.65
2018-09-22T11:05:30.963Z,32.06
2018-09-22T11:07:57.277Z,32.07
2018-09-22T11:10:23.634Z,31.91
2018-09-22T11:12:49.990Z,31.78
2018-09-22T11:15:16.370Z,31.99
2018-09-22T11:17:42.723Z,32.31
2018-09-22T11:20:09.168Z,32.29
2018-09-22T11:22:35.475Z,32.19
2018-09-22T11:25:01.823Z,32.14
2018-09-22T11:27:28.159Z,33.02
2018-09-22T11:29:54.532Z,33.09
2018-09-22T11:32:20.860Z,33.36
2018-09-22T11:34:47.214Z,33.18
2018-09-22T11:37:13.564Z,33.32
2018-09-22T11:39:39.919Z,33.24
2018-09-22T11:42:06.249Z,33.40
2018-09-22T11:44:32.613Z,33.30
2018-09-22T11:46:59.024Z,33.83
2018-09-22T11:49:25.364Z,34.19
2018-09-22T11:51:51.718Z,33.90
2018-09-22T11:54:18.101Z,33.81
2018-09-22T11:56:44.492Z,33.97
2018-09-22T11:59:10.839Z,34.18
2018-09-22T12:01:37.184Z,34.32
2018-09-22T12:04:03.525Z,33.97
2018-09-22T12:06:29.940Z,34.28
2018-09-22T12:08:56.214Z,34.39
2018-09-22T12:11:22.561Z,34.33
2018-09-22T12:13:48.920Z,34.04
2018-09-22T12:16:15.262Z,33.16
2018-09-22T12:18:41.597Z,32.99
2018-09-22T12:21:07.941Z,33.66
2018-09-22T12:23:34.286Z,33.35
2018-09-22T12:26:00.635Z,33.47
2018-09-22T12:28:26.975Z,33.35
2018-09-22T12:30:53.313Z,33.24
2018-09-22T12:33:19.651Z,33.53
2018-09-22T12:35:45.994Z,33.20
2018-09-22T12:38:12.343Z,33.11
2018-09-22T12:40:38.688Z,33.51
2018-09-22T12:45:31.368Z,32.99
2018-09-22T12:47:57.741Z,32.64
2018-09-22T12:50:24.124Z,32.48
2018-09-22T12:52:50.516Z,31.84
2018-09-22T12:55:16.847Z,31.61
2018-09-22T12:57:43.228Z,31.62
2018-09-22T13:00:09.607Z,31.45
2018-09-22T13:02:35.935Z,30.95
2018-09-22T13:05:02.298Z,30.81
2018-09-22T13:07:28.641Z,30.58
2018-09-22T13:09:55.023Z,30.75
2018-09-22T13:12:21.395Z,30.53
2018-09-22T13:14:47.728Z,30.36
2018-09-22T13:17:14.075Z,30.11
2018-09-22T13:19:40.429Z,30.15
2018-09-22T13:22:06.790Z,30.08
2018-09-22T13:24:33.131Z,30.09
2018-09-22T13:26:59.472Z,30.16
2018-09-22T13:29:25.826Z,30.09
2018-09-22T13:31:52.160Z,30.09
2018-09-22T13:34:18.503Z,30.13
2018-09-22T13:36:44.844Z,29.99
2018-09-22T13:39:11.172Z,30.09
2018-09-22T13:41:37.517Z,30.06
2018-09-22T13:44:03.851Z,29.91
2018-09-22T13:46:30.245Z,29.76
2018-09-22T13:48:56.605Z,29.81
2018-09-22T13:51:22.928Z,29.93
2018-09-22T13:53:49.316Z,30.04
2018-09-22T13:56:15.733Z,30.08
2018-09-22T13:58:42.001Z,29.87
2018-09-22T14:01:08.422Z,29.97
2018-09-22T14:03:34.869Z,30.00
2018-09-22T14:06:01.160Z,29.99
2018-09-22T14:08:27.513Z,29.96
2018-09-22T14:10:53.873Z,29.90
2018-09-22T14:13:20.218Z,29.87
2018-09-22T14:15:46.553Z,29.84
2018-09-22T14:18:12.906Z,29.74
2018-09-22T14:20:39.249Z,29.79
2018-09-22T14:23:05.611Z,29.69
2018-09-22T14:25:31.953Z,29.61
2018-09-22T14:27:58.298Z,29.64
2018-09-22T14:30:24.656Z,29.67
2018-09-22T14:32:50.991Z,29.62
2018-09-22T14:35:17.338Z,29.52
2018-09-22T14:37:43.722Z,29.43
2018-09-22T14:40:10.042Z,29.34
2018-09-22T14:42:36.385Z,29.24
2018-09-22T14:45:02.723Z,29.16
2018-09-22T14:47:29.132Z,29.15
2018-09-22T14:49:55.436Z,29.18
2018-09-22T14:52:21.828Z,29.18
2018-09-22T14:54:48.164Z,29.11
2018-09-22T14:57:14.557Z,29.06
2018-09-22T14:59:40.904Z,28.99
2018-09-22T15:02:12.476Z,28.94
2018-09-22T15:04:38.696Z,28.88
2018-09-22T15:07:05.038Z,28.82
2018-09-22T15:09:36.864Z,28.67
2018-09-22T15:12:01.207Z,28.46
2018-09-22T15:14:27.821Z,28.22
2018-09-22T15:17:03.812Z,28.11
2018-09-22T15:19:23.917Z,28.03
2018-09-22T15:21:50.314Z,28.03
2018-09-22T15:24:16.663Z,28.03
2018-09-22T15:26:42.985Z,27.94
2018-09-22T15:29:09.315Z,27.85
2018-09-22T15:31:35.705Z,27.79
2018-09-22T15:34:02.055Z,27.74
2018-09-22T15:36:28.458Z,27.66
2018-09-22T15:38:54.804Z,27.52
2018-09-22T15:41:21.124Z,27.49
2018-09-22T15:43:47.475Z,27.42
2018-09-22T15:46:13.823Z,27.28
2018-09-22T15:48:40.307Z,27.19
2018-09-22T15:51:06.492Z,27.14
2018-09-22T15:53:32.843Z,27.02
2018-09-22T15:55:59.179Z,26.97
2018-09-22T15:58:25.537Z,26.89
2018-09-22T16:00:51.939Z,26.83
2018-09-22T16:03:18.230Z,26.74
2018-09-22T16:05:44.568Z,26.66
2018-09-22T16:08:10.907Z,26.50
2018-09-22T16:10:37.254Z,26.39
2018-09-22T16:13:03.600Z,26.33
2018-09-22T16:15:29.985Z,26.26
2018-09-22T16:17:56.314Z,26.20
2018-09-22T16:20:22.674Z,26.12
2018-09-22T16:22:49.030Z,26.01
2018-09-22T16:25:15.412Z,25.91
2018-09-22T16:27:41.726Z,25.86
2018-09-22T16:30:10.687Z,25.78
2018-09-22T16:32:37.024Z,25.72
2018-09-22T16:35:03.382Z,25.56
2018-09-22T16:37:29.744Z,25.48
2018-09-22T16:39:56.087Z,25.40
2018-09-22T16:42:22.415Z,25.33
2018-09-22T16:44:48.747Z,25.27
2018-09-22T16:47:15.089Z,25.26
2018-09-22T16:49:41.462Z,25.23
2018-09-22T16:52:07.799Z,25.19
2018-09-22T16:54:34.131Z,25.17
2018-09-22T16:57:00.489Z,25.09
2018-09-22T16:59:26.805Z,25.02
2018-09-22T17:01:53.192Z,24.96
2018-09-22T17:04:19.538Z,24.85
2018-09-22T17:06:45.881Z,24.81
2018-09-22T17:09:12.212Z,24.83
2018-09-22T17:11:38.552Z,24.83
2018-09-22T17:14:04.884Z,24.78
2018-09-22T17:16:31.257Z,24.72
2018-09-22T17:18:57.582Z,24.69
2018-09-22T17:21:23.928Z,24.72
2018-09-22T17:23:50.267Z,24.67
2018-09-22T17:26:16.611Z,24.65
2018-09-22T17:28:43.017Z,24.63
2018-09-22T17:31:09.299Z,24.62
2018-09-22T17:33:35.637Z,24.57
2018-09-22T17:36:01.976Z,24.48
2018-09-22T17:38:28.314Z,24.39
2018-09-22T17:40:54.646Z,24.34
2018-09-22T17:43:21.054Z,24.27
2018-09-22T17:45:47.328Z,24.20
2018-09-22T17:48:23.071Z,24.12
2018-09-22T17:50:54.066Z,24.06
2018-09-22T17:56:07.191Z,23.87
2018-09-22T17:58:33.532Z,23.48
2018-09-22T18:00:59.865Z,23.28
2018-09-22T18:03:26.203Z,23.20
2018-09-22T18:05:52.584Z,23.24
2018-09-22T18:08:18.872Z,23.28
2018-09-22T18:10:45.216Z,23.33
2018-09-22T18:13:11.564Z,23.16
2018-09-22T18:15:37.910Z,23.00
2018-09-22T18:18:04.253Z,23.03
2018-09-22T18:20:30.583Z,23.03
2018-09-22T18:22:56.920Z,22.94
2018-09-22T18:25:23.364Z,22.85
2018-09-22T18:27:49.637Z,22.92
2018-09-22T18:30:18.764Z,22.86
2018-09-22T18:32:45.094Z,22.84
2018-09-22T18:35:11.420Z,22.81
2018-09-22T18:37:37.790Z,22.79
2018-09-22T18:40:04.132Z,22.80
2018-09-22T18:42:30.513Z,22.78
2018-09-22T18:44:56.793Z,22.65
2018-09-22T18:47:23.125Z,22.52
2018-09-22T18:49:49.507Z,22.39
2018-09-22T18:52:15.788Z,22.17
2018-09-22T18:54:42.122Z,22.17
2018-09-22T18:57:08.464Z,22.04
2018-09-22T18:59:34.801Z,22.04
2018-09-22T19:02:01.139Z,22.21
2018-09-22T19:04:27.489Z,22.19
2018-09-22T19:06:53.815Z,22.14
2018-09-22T19:09:20.197Z,22.08
2018-09-22T19:11:46.569Z,22.07
2018-09-22T19:14:12.971Z,22.04
2018-09-22T19:16:39.309Z,21.87
2018-09-22T19:19:05.655Z,21.68
2018-09-22T19:21:32.002Z,21.49
2018-09-22T19:23:58.339Z,21.40
2018-09-22T19:26:24.698Z,21.45
2018-09-22T19:28:51.045Z,21.42
2018-09-22T19:31:17.382Z,21.46
2018-09-22T19:33:43.722Z,21.41
2018-09-22T19:36:10.065Z,21.33
2018-09-22T19:38:36.410Z,21.31
2018-09-22T19:41:02.752Z,21.15
2018-09-22T19:43:29.088Z,21.06
2018-09-22T19:45:55.418Z,21.05
2018-09-22T19:48:21.759Z,21.02
2018-09-22T19:50:48.174Z,20.95
2018-09-22T19:53:14.472Z,20.92
2018-09-22T19:55:40.792Z,20.90
2018-09-22T19:58:07.233Z,21.02
2018-09-22T20:00:33.488Z,21.07
2018-09-22T20:02:59.827Z,21.09
2018-09-22T20:05:26.201Z,21.14
2018-09-22T20:07:52.531Z,21.19
2018-09-22T20:10:18.864Z,21.19
2018-09-22T20:12:45.209Z,21.21
2018-09-22T20:15:11.543Z,21.22
2018-09-22T20:17:37.986Z,21.28
2018-09-22T20:20:04.219Z,21.22
2018-09-22T20:22:30.566Z,21.04
2018-09-22T20:24:56.894Z,21.01
2018-09-22T20:27:23.231Z,21.00
2018-09-22T20:29:49.573Z,21.03
2018-09-22T20:32:15.910Z,20.98
2018-09-22T20:34:42.236Z,20.95
2018-09-22T20:37:08.579Z,21.03
2018-09-22T20:39:34.919Z,21.06
2018-09-22T20:42:01.295Z,20.97
2018-09-22T20:44:27.633Z,20.89
2018-09-22T20:46:53.970Z,20.85
2018-09-22T20:49:20.303Z,20.98
2018-09-22T20:51:46.648Z,21.05
2018-09-22T20:54:13.066Z,20.93
2018-09-22T20:56:39.328Z,20.79
2018-09-22T20:59:05.670Z,20.80
2018-09-22T21:01:32.004Z,20.88
2018-09-22T21:03:58.348Z,20.75
2018-09-22T21:06:24.685Z,20.71
2018-09-22T21:08:51.058Z,20.80
2018-09-22T21:11:17.399Z,20.86
2018-09-22T21:13:43.773Z,20.86
2018-09-22T21:16:10.176Z,20.80
2018-09-22T21:18:36.521Z,20.68
2018-09-22T21:21:02.891Z,20.66
2018-09-22T21:23:29.230Z,20.69
2018-09-22T21:25:55.627Z,20.52
2018-09-22T21:28:21.955Z,20.31
2018-09-22T21:30:48.346Z,20.17
2018-09-22T21:33:14.653Z,19.96
2018-09-22T21:35:40.994Z,19.93
2018-09-22T21:38:07.374Z,19.87
2018-09-22T21:40:33.687Z,19.91
2018-09-22T21:43:00.029Z,19.93
2018-09-22T21:45:26.395Z,19.98
2018-09-22T21:47:52.740Z,19.98
2018-09-22T21:50:19.060Z,20.01
2018-09-22T21:52:45.440Z,19.88
2018-09-22T21:55:11.814Z,19.77
2018-09-22T21:57:38.124Z,19.64
2018-09-22T22:00:04.486Z,19.60
2018-09-22T22:02:30.858Z,19.72
2018-09-22T22:04:57.236Z,19.59
2018-09-22T22:07:23.557Z,19.49
2018-09-22T22:09:49.902Z,19.41
2018-09-22T22:12:16.244Z,19.42
2018-09-22T22:14:42.619Z,19.68
2018-09-22T22:17:08.985Z,19.71
2018-09-22T22:19:35.364Z,19.76
2018-09-22T22:22:01.752Z,19.85
2018-09-22T22:24:28.118Z,19.88
2018-09-22T22:26:54.465Z,19.78
2018-09-22T22:29:20.808Z,19.66
2018-09-22T22:31:47.150Z,19.55
2018-09-22T22:34:13.496Z,19.69
2018-09-22T22:36:39.835Z,19.84
2018-09-22T22:39:06.192Z,19.92
2018-09-22T22:41:32.528Z,19.87
2018-09-22T22:43:58.902Z,19.69
2018-09-22T22:46:25.232Z,19.63
2018-09-22T22:48:51.572Z,19.69
2018-09-22T22:51:17.916Z,19.71
2018-09-22T22:53:44.263Z,19.77
2018-09-22T22:56:10.599Z,19.83
2018-09-22T22:58:37.065Z,19.85
2018-09-22T23:01:03.378Z,19.84
2018-09-22T23:03:29.746Z,19.79
2018-09-22T23:05:56.088Z,19.60
2018-09-22T23:08:22.432Z,19.46
2018-09-22T23:10:48.755Z,19.31
2018-09-22T23:13:15.078Z,19.24
2018-09-22T23:15:41.398Z,19.18
2018-09-22T23:18:07.709Z,19.17
2018-09-22T23:20:34.029Z,19.14
2018-09-22T23:23:00.386Z,19.08
2018-09-22T23:25:26.702Z,19.07
2018-09-22T23:27:53.014Z,19.07
2018-09-22T23:30:19.333Z,19.11
2018-09-22T23:32:45.717Z,19.10
2018-09-22T23:35:12.043Z,19.13
2018-09-22T23:37:39.891Z,19.18
2018-09-22T23:40:06.271Z,19.21
2018-09-22T23:42:35.313Z,19.21
2018-09-22T23:45:14.425Z,19.22
2018-09-22T23:47:40.923Z,19.19
2018-09-22T23:50:07.194Z,19.09
2018-09-22T23:55:18.951Z,19.12
2018-09-22T23:57:45.296Z,19.14
